sensor_id;sensor_type;location;lat;lon;timestamp;P1;P2;P0
73517;PMS5003;61766;60.318;25.044;2023-06-22T00:01:19;25;25;
73517;PMS5003;61766;60.318;25.044;2023-06-22T00:03:45;28;28;
73517;PMS5003;61766;60.318;25.044;2023-06-22T00:06:10;26;25;
73517;PMS5003;61766;60.318;25.044;2023-06-22T00:08:35;28;27;
73517;PMS5003;61766;60.318;25.044;2023-06-22T00:11:00;31;30;
73517;PMS5003;61766;60.318;25.044;2023-06-22T00:13:26;27;26;
73517;PMS5003;61766;60.318;25.044;2023-06-22T00:15:51;26;25;
73517;PMS5003;61766;60.318;25.044;2023-06-22T00:18:17;25;25;
73517;PMS5003;61766;60.318;25.044;2023-06-22T00:20:42;25;25;
73517;PMS5003;61766;60.318;25.044;2023-06-22T00:23:08;25;25;
73517;PMS5003;61766;60.318;25.044;2023-06-22T00:25:33;24;24;
73517;PMS5003;61766;60.318;25.044;2023-06-22T00:27:58;24;24;
73517;PMS5003;61766;60.318;25.044;2023-06-22T00:30:23;26;26;
73517;PMS5003;61766;60.318;25.044;2023-06-22T00:32:49;26;26;
73517;PMS5003;61766;60.318;25.044;2023-06-22T00:35:15;25;25;
73517;PMS5003;61766;60.318;25.044;2023-06-22T00:37:40;24;24;
73517;PMS5003;61766;60.318;25.044;2023-06-22T00:40:07;28;28;
73517;PMS5003;61766;60.318;25.044;2023-06-22T00:42:32;30;29;
73517;PMS5003;61766;60.318;25.044;2023-06-22T00:44:57;28;27;
73517;PMS5003;61766;60.318;25.044;2023-06-22T00:47:23;27;27;
73517;PMS5003;61766;60.318;25.044;2023-06-22T00:49:49;29;29;
73517;PMS5003;61766;60.318;25.044;2023-06-22T00:52:20;25;24;
73517;PMS5003;61766;60.318;25.044;2023-06-22T00:54:40;29;29;
73517;PMS5003;61766;60.318;25.044;2023-06-22T00:57:05;30;28;
73517;PMS5003;61766;60.318;25.044;2023-06-22T00:59:31;29;29;
73517;PMS5003;61766;60.318;25.044;2023-06-22T01:01:56;29;29;
73517;PMS5003;61766;60.318;25.044;2023-06-22T01:04:24;32;31;
73517;PMS5003;61766;60.318;25.044;2023-06-22T01:06:50;30;29;
73517;PMS5003;61766;60.318;25.044;2023-06-22T01:09:14;28;28;
73517;PMS5003;61766;60.318;25.044;2023-06-22T01:11:39;28;28;
73517;PMS5003;61766;60.318;25.044;2023-06-22T01:14:06;26;26;
73517;PMS5003;61766;60.318;25.044;2023-06-22T01:16:35;31;29;
73517;PMS5003;61766;60.318;25.044;2023-06-22T01:18:55;27;27;
73517;PMS5003;61766;60.318;25.044;2023-06-22T01:21:21;30;29;
73517;PMS5003;61766;60.318;25.044;2023-06-22T01:23:50;30;30;
73517;PMS5003;61766;60.318;25.044;2023-06-22T01:26:13;25;25;
73517;PMS5003;61766;60.318;25.044;2023-06-22T01:28:43;27;27;
73517;PMS5003;61766;60.318;25.044;2023-06-22T01:31:02;31;31;
73517;PMS5003;61766;60.318;25.044;2023-06-22T01:33:27;30;30;
73517;PMS5003;61766;60.318;25.044;2023-06-22T01:35:53;26;26;
73517;PMS5003;61766;60.318;25.044;2023-06-22T01:38:18;26;26;
73517;PMS5003;61766;60.318;25.044;2023-06-22T01:40:43;31;31;
73517;PMS5003;61766;60.318;25.044;2023-06-22T01:43:08;29;29;
73517;PMS5003;61766;60.318;25.044;2023-06-22T01:45:34;26;26;
73517;PMS5003;61766;60.318;25.044;2023-06-22T01:48:00;28;28;
73517;PMS5003;61766;60.318;25.044;2023-06-22T01:50:25;32;31;
73517;PMS5003;61766;60.318;25.044;2023-06-22T01:52:50;29;27;
73517;PMS5003;61766;60.318;25.044;2023-06-22T01:55:15;29;29;
73517;PMS5003;61766;60.318;25.044;2023-06-22T01:57:41;25;25;
73517;PMS5003;61766;60.318;25.044;2023-06-22T02:00:12;30;29;
73517;PMS5003;61766;60.318;25.044;2023-06-22T02:02:33;28;27;
73517;PMS5003;61766;60.318;25.044;2023-06-22T02:04:59;29;28;
73517;PMS5003;61766;60.318;25.044;2023-06-22T02:07:23;29;29;
73517;PMS5003;61766;60.318;25.044;2023-06-22T02:09:49;33;33;
73517;PMS5003;61766;60.318;25.044;2023-06-22T02:12:15;26;26;
73517;PMS5003;61766;60.318;25.044;2023-06-22T02:14:39;31;31;
73517;PMS5003;61766;60.318;25.044;2023-06-22T02:17:05;32;31;
73517;PMS5003;61766;60.318;25.044;2023-06-22T02:19:30;26;26;
73517;PMS5003;61766;60.318;25.044;2023-06-22T02:21:56;35;34;
73517;PMS5003;61766;60.318;25.044;2023-06-22T02:24:21;32;32;
73517;PMS5003;61766;60.318;25.044;2023-06-22T02:26:47;31;30;
73517;PMS5003;61766;60.318;25.044;2023-06-22T02:29:12;28;28;
73517;PMS5003;61766;60.318;25.044;2023-06-22T02:31:37;30;29;
73517;PMS5003;61766;60.318;25.044;2023-06-22T02:34:04;30;30;
73517;PMS5003;61766;60.318;25.044;2023-06-22T02:36:34;32;32;
73517;PMS5003;61766;60.318;25.044;2023-06-22T02:38:55;28;28;
73517;PMS5003;61766;60.318;25.044;2023-06-22T02:41:20;31;30;
73517;PMS5003;61766;60.318;25.044;2023-06-22T02:43:46;32;32;
73517;PMS5003;61766;60.318;25.044;2023-06-22T02:46:11;33;32;
73517;PMS5003;61766;60.318;25.044;2023-06-22T02:48:37;30;30;
73517;PMS5003;61766;60.318;25.044;2023-06-22T02:51:02;30;30;
73517;PMS5003;61766;60.318;25.044;2023-06-22T02:53:28;29;29;
73517;PMS5003;61766;60.318;25.044;2023-06-22T02:55:53;31;28;
73517;PMS5003;61766;60.318;25.044;2023-06-22T02:58:18;31;31;
73517;PMS5003;61766;60.318;25.044;2023-06-22T03:00:44;27;27;
73517;PMS5003;61766;60.318;25.044;2023-06-22T03:03:09;32;31;
73517;PMS5003;61766;60.318;25.044;2023-06-22T03:05:34;31;31;
73517;PMS5003;61766;60.318;25.044;2023-06-22T03:08:00;32;32;
73517;PMS5003;61766;60.318;25.044;2023-06-22T03:10:26;30;30;
73517;PMS5003;61766;60.318;25.044;2023-06-22T03:12:51;33;33;
73517;PMS5003;61766;60.318;25.044;2023-06-22T03:15:17;37;37;
73517;PMS5003;61766;60.318;25.044;2023-06-22T03:17:42;32;31;
73517;PMS5003;61766;60.318;25.044;2023-06-22T03:20:08;35;34;
73517;PMS5003;61766;60.318;25.044;2023-06-22T03:22:33;27;26;
73517;PMS5003;61766;60.318;25.044;2023-06-22T03:24:59;31;30;
73517;PMS5003;61766;60.318;25.044;2023-06-22T03:27:25;32;30;
73517;PMS5003;61766;60.318;25.044;2023-06-22T03:29:50;35;34;
73517;PMS5003;61766;60.318;25.044;2023-06-22T03:32:15;31;30;
73517;PMS5003;61766;60.318;25.044;2023-06-22T03:34:41;35;35;
73517;PMS5003;61766;60.318;25.044;2023-06-22T03:37:07;32;31;
73517;PMS5003;61766;60.318;25.044;2023-06-22T03:39:32;32;32;
73517;PMS5003;61766;60.318;25.044;2023-06-22T03:41:57;26;26;
73517;PMS5003;61766;60.318;25.044;2023-06-22T03:44:23;29;29;
73517;PMS5003;61766;60.318;25.044;2023-06-22T03:46:48;31;30;
73517;PMS5003;61766;60.318;25.044;2023-06-22T03:49:13;28;28;
73517;PMS5003;61766;60.318;25.044;2023-06-22T03:51:38;31;31;
73517;PMS5003;61766;60.318;25.044;2023-06-22T03:54:04;29;29;
73517;PMS5003;61766;60.318;25.044;2023-06-22T03:56:30;32;31;
73517;PMS5003;61766;60.318;25.044;2023-06-22T03:59:00;31;30;
73517;PMS5003;61766;60.318;25.044;2023-06-22T04:01:26;29;29;
73517;PMS5003;61766;60.318;25.044;2023-06-22T04:03:46;29;29;
73517;PMS5003;61766;60.318;25.044;2023-06-22T04:06:11;30;30;
73517;PMS5003;61766;60.318;25.044;2023-06-22T04:08:36;29;27;
73517;PMS5003;61766;60.318;25.044;2023-06-22T04:11:02;26;26;
73517;PMS5003;61766;60.318;25.044;2023-06-22T04:13:27;31;31;
73517;PMS5003;61766;60.318;25.044;2023-06-22T04:15:52;29;29;
73517;PMS5003;61766;60.318;25.044;2023-06-22T04:18:17;29;29;
73517;PMS5003;61766;60.318;25.044;2023-06-22T04:20:43;31;29;
73517;PMS5003;61766;60.318;25.044;2023-06-22T04:23:08;28;28;
73517;PMS5003;61766;60.318;25.044;2023-06-22T04:25:34;30;28;
73517;PMS5003;61766;60.318;25.044;2023-06-22T04:28:00;29;29;
73517;PMS5003;61766;60.318;25.044;2023-06-22T04:30:25;25;25;
73517;PMS5003;61766;60.318;25.044;2023-06-22T04:32:51;24;24;
73517;PMS5003;61766;60.318;25.044;2023-06-22T04:35:16;24;24;
73517;PMS5003;61766;60.318;25.044;2023-06-22T04:37:42;24;23;
73517;PMS5003;61766;60.318;25.044;2023-06-22T04:40:07;32;31;
73517;PMS5003;61766;60.318;25.044;2023-06-22T04:42:33;31;30;
73517;PMS5003;61766;60.318;25.044;2023-06-22T04:44:58;27;27;
73517;PMS5003;61766;60.318;25.044;2023-06-22T04:47:23;26;25;
73517;PMS5003;61766;60.318;25.044;2023-06-22T04:49:49;31;30;
73517;PMS5003;61766;60.318;25.044;2023-06-22T04:52:15;24;24;
73517;PMS5003;61766;60.318;25.044;2023-06-22T04:54:40;26;26;
73517;PMS5003;61766;60.318;25.044;2023-06-22T04:57:06;26;26;
73517;PMS5003;61766;60.318;25.044;2023-06-22T04:59:31;24;24;
73517;PMS5003;61766;60.318;25.044;2023-06-22T05:01:57;27;26;
73517;PMS5003;61766;60.318;25.044;2023-06-22T05:04:22;26;26;
73517;PMS5003;61766;60.318;25.044;2023-06-22T05:06:47;29;28;
73517;PMS5003;61766;60.318;25.044;2023-06-22T05:09:13;24;23;
73517;PMS5003;61766;60.318;25.044;2023-06-22T05:11:38;28;27;
73517;PMS5003;61766;60.318;25.044;2023-06-22T05:14:03;25;25;
73517;PMS5003;61766;60.318;25.044;2023-06-22T05:16:29;26;26;
73517;PMS5003;61766;60.318;25.044;2023-06-22T05:18:54;29;29;
73517;PMS5003;61766;60.318;25.044;2023-06-22T05:21:21;26;25;
73517;PMS5003;61766;60.318;25.044;2023-06-22T05:23:45;28;27;
73517;PMS5003;61766;60.318;25.044;2023-06-22T05:26:10;20;20;
73517;PMS5003;61766;60.318;25.044;2023-06-22T05:28:36;26;25;
73517;PMS5003;61766;60.318;25.044;2023-06-22T05:31:01;27;26;
73517;PMS5003;61766;60.318;25.044;2023-06-22T05:33:26;27;26;
73517;PMS5003;61766;60.318;25.044;2023-06-22T05:35:51;25;24;
73517;PMS5003;61766;60.318;25.044;2023-06-22T05:38:17;23;23;
73517;PMS5003;61766;60.318;25.044;2023-06-22T05:40:42;23;23;
73517;PMS5003;61766;60.318;25.044;2023-06-22T05:43:07;25;25;
73517;PMS5003;61766;60.318;25.044;2023-06-22T05:45:33;25;25;
73517;PMS5003;61766;60.318;25.044;2023-06-22T05:47:59;22;22;
73517;PMS5003;61766;60.318;25.044;2023-06-22T05:50:24;25;25;
73517;PMS5003;61766;60.318;25.044;2023-06-22T05:52:49;31;30;
73517;PMS5003;61766;60.318;25.044;2023-06-22T05:55:15;27;27;
73517;PMS5003;61766;60.318;25.044;2023-06-22T05:57:40;28;27;
73517;PMS5003;61766;60.318;25.044;2023-06-22T06:00:07;25;25;
73517;PMS5003;61766;60.318;25.044;2023-06-22T06:02:31;25;23;
73517;PMS5003;61766;60.318;25.044;2023-06-22T06:04:56;25;25;
73517;PMS5003;61766;60.318;25.044;2023-06-22T06:07:22;32;30;
73517;PMS5003;61766;60.318;25.044;2023-06-22T06:09:47;28;27;
73517;PMS5003;61766;60.318;25.044;2023-06-22T06:12:13;34;31;
73517;PMS5003;61766;60.318;25.044;2023-06-22T06:14:39;30;30;
73517;PMS5003;61766;60.318;25.044;2023-06-22T06:17:04;27;27;
73517;PMS5003;61766;60.318;25.044;2023-06-22T06:19:30;30;29;
73517;PMS5003;61766;60.318;25.044;2023-06-22T06:21:55;32;32;
73517;PMS5003;61766;60.318;25.044;2023-06-22T06:24:21;25;24;
73517;PMS5003;61766;60.318;25.044;2023-06-22T06:26:47;31;29;
73517;PMS5003;61766;60.318;25.044;2023-06-22T06:29:12;34;33;
73517;PMS5003;61766;60.318;25.044;2023-06-22T06:31:37;37;35;
73517;PMS5003;61766;60.318;25.044;2023-06-22T06:34:02;28;28;
73517;PMS5003;61766;60.318;25.044;2023-06-22T06:36:27;29;29;
73517;PMS5003;61766;60.318;25.044;2023-06-22T06:38:53;28;27;
73517;PMS5003;61766;60.318;25.044;2023-06-22T06:41:18;37;37;
73517;PMS5003;61766;60.318;25.044;2023-06-22T06:43:44;31;30;
73517;PMS5003;61766;60.318;25.044;2023-06-22T06:46:09;29;29;
73517;PMS5003;61766;60.318;25.044;2023-06-22T06:48:35;31;31;
73517;PMS5003;61766;60.318;25.044;2023-06-22T06:51:00;30;29;
73517;PMS5003;61766;60.318;25.044;2023-06-22T06:53:25;35;35;
73517;PMS5003;61766;60.318;25.044;2023-06-22T06:55:51;30;30;
73517;PMS5003;61766;60.318;25.044;2023-06-22T06:58:16;28;28;
73517;PMS5003;61766;60.318;25.044;2023-06-22T07:00:42;35;34;
73517;PMS5003;61766;60.318;25.044;2023-06-22T07:03:08;27;27;
73517;PMS5003;61766;60.318;25.044;2023-06-22T07:05:32;32;31;
73517;PMS5003;61766;60.318;25.044;2023-06-22T07:07:57;30;29;
73517;PMS5003;61766;60.318;25.044;2023-06-22T07:10:23;30;30;
73517;PMS5003;61766;60.318;25.044;2023-06-22T07:12:49;34;33;
73517;PMS5003;61766;60.318;25.044;2023-06-22T07:15:14;29;29;
73517;PMS5003;61766;60.318;25.044;2023-06-22T07:17:40;27;27;
73517;PMS5003;61766;60.318;25.044;2023-06-22T07:20:05;33;31;
73517;PMS5003;61766;60.318;25.044;2023-06-22T07:22:31;25;25;
73517;PMS5003;61766;60.318;25.044;2023-06-22T07:24:56;29;29;
73517;PMS5003;61766;60.318;25.044;2023-06-22T07:27:21;33;32;
73517;PMS5003;61766;60.318;25.044;2023-06-22T07:29:47;30;30;
73517;PMS5003;61766;60.318;25.044;2023-06-22T07:32:12;29;29;
73517;PMS5003;61766;60.318;25.044;2023-06-22T07:34:37;31;31;
73517;PMS5003;61766;60.318;25.044;2023-06-22T07:37:03;34;34;
73517;PMS5003;61766;60.318;25.044;2023-06-22T07:39:28;32;32;
73517;PMS5003;61766;60.318;25.044;2023-06-22T07:41:54;32;31;
73517;PMS5003;61766;60.318;25.044;2023-06-22T07:44:19;33;33;
73517;PMS5003;61766;60.318;25.044;2023-06-22T07:46:44;29;27;
73517;PMS5003;61766;60.318;25.044;2023-06-22T07:49:09;30;30;
73517;PMS5003;61766;60.318;25.044;2023-06-22T07:51:35;31;31;
73517;PMS5003;61766;60.318;25.044;2023-06-22T07:54:01;31;31;
73517;PMS5003;61766;60.318;25.044;2023-06-22T07:56:26;36;34;
73517;PMS5003;61766;60.318;25.044;2023-06-22T07:58:52;31;31;
73517;PMS5003;61766;60.318;25.044;2023-06-22T08:01:17;36;34;
73517;PMS5003;61766;60.318;25.044;2023-06-22T08:03:48;29;29;
73517;PMS5003;61766;60.318;25.044;2023-06-22T08:06:08;28;27;
73517;PMS5003;61766;60.318;25.044;2023-06-22T08:08:33;34;34;
73517;PMS5003;61766;60.318;25.044;2023-06-22T08:10:59;31;31;
73517;PMS5003;61766;60.318;25.044;2023-06-22T08:13:29;29;29;
73517;PMS5003;61766;60.318;25.044;2023-06-22T08:15:50;35;35;
73517;PMS5003;61766;60.318;25.044;2023-06-22T08:18:15;31;31;
73517;PMS5003;61766;60.318;25.044;2023-06-22T08:20:40;30;30;
73517;PMS5003;61766;60.318;25.044;2023-06-22T08:23:06;29;29;
73517;PMS5003;61766;60.318;25.044;2023-06-22T08:25:31;27;26;
73517;PMS5003;61766;60.318;25.044;2023-06-22T08:28:02;32;32;
73517;PMS5003;61766;60.318;25.044;2023-06-22T08:30:22;30;29;
73517;PMS5003;61766;60.318;25.044;2023-06-22T08:32:48;27;27;
73517;PMS5003;61766;60.318;25.044;2023-06-22T08:35:13;34;34;
73517;PMS5003;61766;60.318;25.044;2023-06-22T08:37:38;27;26;
73517;PMS5003;61766;60.318;25.044;2023-06-22T08:40:05;32;31;
73517;PMS5003;61766;60.318;25.044;2023-06-22T08:42:30;29;29;
73517;PMS5003;61766;60.318;25.044;2023-06-22T08:44:55;33;32;
73517;PMS5003;61766;60.318;25.044;2023-06-22T08:47:26;30;27;
73517;PMS5003;61766;60.318;25.044;2023-06-22T08:49:46;29;28;
73517;PMS5003;61766;60.318;25.044;2023-06-22T08:52:11;25;24;
73517;PMS5003;61766;60.318;25.044;2023-06-22T08:54:37;30;29;
73517;PMS5003;61766;60.318;25.044;2023-06-22T08:57:03;23;21;
73517;PMS5003;61766;60.318;25.044;2023-06-22T08:59:28;19;19;
73517;PMS5003;61766;60.318;25.044;2023-06-22T09:01:54;21;20;
73517;PMS5003;61766;60.318;25.044;2023-06-22T09:04:19;24;23;
73517;PMS5003;61766;60.318;25.044;2023-06-22T09:06:49;22;22;
73517;PMS5003;61766;60.318;25.044;2023-06-22T09:09:10;22;22;
73517;PMS5003;61766;60.318;25.044;2023-06-22T09:11:36;19;19;
73517;PMS5003;61766;60.318;25.044;2023-06-22T09:14:01;20;19;
73517;PMS5003;61766;60.318;25.044;2023-06-22T09:16:27;22;22;
73517;PMS5003;61766;60.318;25.044;2023-06-22T09:18:52;26;26;
73517;PMS5003;61766;60.318;25.044;2023-06-22T09:21:18;22;22;
73517;PMS5003;61766;60.318;25.044;2023-06-22T09:23:43;21;21;
73517;PMS5003;61766;60.318;25.044;2023-06-22T09:26:10;21;21;
73517;PMS5003;61766;60.318;25.044;2023-06-22T09:28:34;19;18;
73517;PMS5003;61766;60.318;25.044;2023-06-22T09:30:59;20;20;
73517;PMS5003;61766;60.318;25.044;2023-06-22T09:33:25;25;24;
73517;PMS5003;61766;60.318;25.044;2023-06-22T09:35:50;18;18;
73517;PMS5003;61766;60.318;25.044;2023-06-22T09:38:15;18;18;
73517;PMS5003;61766;60.318;25.044;2023-06-22T09:40:41;16;15;
73517;PMS5003;61766;60.318;25.044;2023-06-22T09:43:06;19;19;
73517;PMS5003;61766;60.318;25.044;2023-06-22T09:45:32;19;17;
73517;PMS5003;61766;60.318;25.044;2023-06-22T09:47:57;21;18;
73517;PMS5003;61766;60.318;25.044;2023-06-22T09:50:23;16;16;
73517;PMS5003;61766;60.318;25.044;2023-06-22T09:52:49;20;20;
73517;PMS5003;61766;60.318;25.044;2023-06-22T09:55:14;16;16;
73517;PMS5003;61766;60.318;25.044;2023-06-22T09:57:40;17;17;
73517;PMS5003;61766;60.318;25.044;2023-06-22T10:00:06;19;19;
73517;PMS5003;61766;60.318;25.044;2023-06-22T10:02:30;18;17;
73517;PMS5003;61766;60.318;25.044;2023-06-22T10:04:56;17;17;
73517;PMS5003;61766;60.318;25.044;2023-06-22T10:07:21;17;17;
73517;PMS5003;61766;60.318;25.044;2023-06-22T10:09:47;19;19;
73517;PMS5003;61766;60.318;25.044;2023-06-22T10:12:12;16;16;
73517;PMS5003;61766;60.318;25.044;2023-06-22T10:14:38;20;20;
73517;PMS5003;61766;60.318;25.044;2023-06-22T10:17:03;19;19;
73517;PMS5003;61766;60.318;25.044;2023-06-22T10:19:28;22;20;
73517;PMS5003;61766;60.318;25.044;2023-06-22T10:21:54;20;19;
73517;PMS5003;61766;60.318;25.044;2023-06-22T10:24:20;17;16;
73517;PMS5003;61766;60.318;25.044;2023-06-22T10:26:45;16;16;
73517;PMS5003;61766;60.318;25.044;2023-06-22T10:29:10;23;23;
73517;PMS5003;61766;60.318;25.044;2023-06-22T10:31:35;18;18;
73517;PMS5003;61766;60.318;25.044;2023-06-22T10:34:02;24;24;
73517;PMS5003;61766;60.318;25.044;2023-06-22T10:36:26;17;17;
73517;PMS5003;61766;60.318;25.044;2023-06-22T10:38:52;18;18;
73517;PMS5003;61766;60.318;25.044;2023-06-22T10:41:17;19;19;
73517;PMS5003;61766;60.318;25.044;2023-06-22T10:43:43;19;18;
73517;PMS5003;61766;60.318;25.044;2023-06-22T10:46:10;23;22;
73517;PMS5003;61766;60.318;25.044;2023-06-22T10:48:34;21;20;
73517;PMS5003;61766;60.318;25.044;2023-06-22T10:51:00;21;21;
73517;PMS5003;61766;60.318;25.044;2023-06-22T10:53:26;21;21;
73517;PMS5003;61766;60.318;25.044;2023-06-22T10:55:50;18;18;
73517;PMS5003;61766;60.318;25.044;2023-06-22T10:58:17;21;20;
73517;PMS5003;61766;60.318;25.044;2023-06-22T11:00:42;24;23;
73517;PMS5003;61766;60.318;25.044;2023-06-22T11:03:06;20;20;
73517;PMS5003;61766;60.318;25.044;2023-06-22T11:05:32;19;19;
73517;PMS5003;61766;60.318;25.044;2023-06-22T11:07:58;21;20;
73517;PMS5003;61766;60.318;25.044;2023-06-22T11:10:23;20;20;
73517;PMS5003;61766;60.318;25.044;2023-06-22T11:12:48;21;21;
73517;PMS5003;61766;60.318;25.044;2023-06-22T11:15:14;21;21;
73517;PMS5003;61766;60.318;25.044;2023-06-22T11:17:40;22;22;
73517;PMS5003;61766;60.318;25.044;2023-06-22T11:20:06;23;21;
73517;PMS5003;61766;60.318;25.044;2023-06-22T11:22:31;22;22;
73517;PMS5003;61766;60.318;25.044;2023-06-22T11:24:56;22;22;
73517;PMS5003;61766;60.318;25.044;2023-06-22T11:27:22;25;22;
73517;PMS5003;61766;60.318;25.044;2023-06-22T11:29:47;23;23;
73517;PMS5003;61766;60.318;25.044;2023-06-22T11:32:18;20;20;
73517;PMS5003;61766;60.318;25.044;2023-06-22T11:34:38;21;21;
73517;PMS5003;61766;60.318;25.044;2023-06-22T11:37:03;26;25;
73517;PMS5003;61766;60.318;25.044;2023-06-22T11:39:29;24;24;
73517;PMS5003;61766;60.318;25.044;2023-06-22T11:41:54;26;26;
73517;PMS5003;61766;60.318;25.044;2023-06-22T11:44:19;31;29;
73517;PMS5003;61766;60.318;25.044;2023-06-22T11:46:44;25;23;
73517;PMS5003;61766;60.318;25.044;2023-06-22T11:49:10;29;29;
73517;PMS5003;61766;60.318;25.044;2023-06-22T11:51:36;24;24;
73517;PMS5003;61766;60.318;25.044;2023-06-22T11:54:01;25;25;
73517;PMS5003;61766;60.318;25.044;2023-06-22T11:56:26;25;25;
73517;PMS5003;61766;60.318;25.044;2023-06-22T11:58:57;24;24;
73517;PMS5003;61766;60.318;25.044;2023-06-22T12:01:17;29;28;
73517;PMS5003;61766;60.318;25.044;2023-06-22T12:03:43;32;31;
73517;PMS5003;61766;60.318;25.044;2023-06-22T12:06:09;31;30;
73517;PMS5003;61766;60.318;25.044;2023-06-22T12:08:34;26;26;
73517;PMS5003;61766;60.318;25.044;2023-06-22T12:11:00;32;31;
73517;PMS5003;61766;60.318;25.044;2023-06-22T12:13:25;26;26;
73517;PMS5003;61766;60.318;25.044;2023-06-22T12:15:51;26;25;
73517;PMS5003;61766;60.318;25.044;2023-06-22T12:18:16;32;32;
73517;PMS5003;61766;60.318;25.044;2023-06-22T12:20:42;26;26;
73517;PMS5003;61766;60.318;25.044;2023-06-22T12:23:12;27;27;
73517;PMS5003;61766;60.318;25.044;2023-06-22T12:25:32;26;26;
73517;PMS5003;61766;60.318;25.044;2023-06-22T12:27:58;29;28;
73517;PMS5003;61766;60.318;25.044;2023-06-22T12:30:23;34;33;
73517;PMS5003;61766;60.318;25.044;2023-06-22T12:32:49;33;33;
73517;PMS5003;61766;60.318;25.044;2023-06-22T12:35:15;31;31;
73517;PMS5003;61766;60.318;25.044;2023-06-22T12:37:41;37;37;
73517;PMS5003;61766;60.318;25.044;2023-06-22T12:40:07;38;37;
73517;PMS5003;61766;60.318;25.044;2023-06-22T12:42:31;33;32;
73517;PMS5003;61766;60.318;25.044;2023-06-22T12:44:57;35;33;
73517;PMS5003;61766;60.318;25.044;2023-06-22T12:47:23;37;35;
73517;PMS5003;61766;60.318;25.044;2023-06-22T12:49:48;37;37;
73517;PMS5003;61766;60.318;25.044;2023-06-22T12:52:14;36;36;
73517;PMS5003;61766;60.318;25.044;2023-06-22T12:54:45;35;35;
73517;PMS5003;61766;60.318;25.044;2023-06-22T12:57:06;44;43;
73517;PMS5003;61766;60.318;25.044;2023-06-22T12:59:36;40;40;
73517;PMS5003;61766;60.318;25.044;2023-06-22T13:01:56;35;35;
73517;PMS5003;61766;60.318;25.044;2023-06-22T13:04:21;36;36;
73517;PMS5003;61766;60.318;25.044;2023-06-22T13:06:47;33;32;
73517;PMS5003;61766;60.318;25.044;2023-06-22T13:09:13;40;40;
73517;PMS5003;61766;60.318;25.044;2023-06-22T13:11:37;42;42;
73517;PMS5003;61766;60.318;25.044;2023-06-22T13:14:03;43;42;
73517;PMS5003;61766;60.318;25.044;2023-06-22T13:16:28;38;37;
73517;PMS5003;61766;60.318;25.044;2023-06-22T13:18:54;38;37;
73517;PMS5003;61766;60.318;25.044;2023-06-22T13:21:19;33;33;
73517;PMS5003;61766;60.318;25.044;2023-06-22T13:23:50;46;45;
73517;PMS5003;61766;60.318;25.044;2023-06-22T13:26:11;41;40;
73517;PMS5003;61766;60.318;25.044;2023-06-22T13:28:36;38;38;
73517;PMS5003;61766;60.318;25.044;2023-06-22T13:31:01;48;48;
73517;PMS5003;61766;60.318;25.044;2023-06-22T13:33:27;40;40;
73517;PMS5003;61766;60.318;25.044;2023-06-22T13:35:53;37;37;
73517;PMS5003;61766;60.318;25.044;2023-06-22T13:38:18;42;42;
73517;PMS5003;61766;60.318;25.044;2023-06-22T13:40:44;47;45;
73517;PMS5003;61766;60.318;25.044;2023-06-22T13:43:08;41;41;
73517;PMS5003;61766;60.318;25.044;2023-06-22T13:45:34;34;34;
73517;PMS5003;61766;60.318;25.044;2023-06-22T13:47:59;38;36;
73517;PMS5003;61766;60.318;25.044;2023-06-22T13:50:25;41;41;
73517;PMS5003;61766;60.318;25.044;2023-06-22T13:52:50;43;42;
73517;PMS5003;61766;60.318;25.044;2023-06-22T13:55:15;37;36;
73517;PMS5003;61766;60.318;25.044;2023-06-22T13:57:46;44;43;
73517;PMS5003;61766;60.318;25.044;2023-06-22T14:00:06;34;34;
73517;PMS5003;61766;60.318;25.044;2023-06-22T14:02:32;35;35;
73517;PMS5003;61766;60.318;25.044;2023-06-22T14:04:57;38;37;
73517;PMS5003;61766;60.318;25.044;2023-06-22T14:07:22;38;36;
73517;PMS5003;61766;60.318;25.044;2023-06-22T14:09:48;37;36;
73517;PMS5003;61766;60.318;25.044;2023-06-22T14:12:13;35;35;
73517;PMS5003;61766;60.318;25.044;2023-06-22T14:14:39;37;36;
73517;PMS5003;61766;60.318;25.044;2023-06-22T14:17:04;37;37;
73517;PMS5003;61766;60.318;25.044;2023-06-22T14:19:29;41;40;
73517;PMS5003;61766;60.318;25.044;2023-06-22T14:21:54;40;39;
73517;PMS5003;61766;60.318;25.044;2023-06-22T14:24:19;37;37;
73517;PMS5003;61766;60.318;25.044;2023-06-22T14:26:45;34;34;
73517;PMS5003;61766;60.318;25.044;2023-06-22T14:29:10;46;44;
73517;PMS5003;61766;60.318;25.044;2023-06-22T14:31:36;36;36;
73517;PMS5003;61766;60.318;25.044;2023-06-22T14:34:02;42;42;
73517;PMS5003;61766;60.318;25.044;2023-06-22T14:36:26;36;35;
73517;PMS5003;61766;60.318;25.044;2023-06-22T14:38:51;32;31;
73517;PMS5003;61766;60.318;25.044;2023-06-22T14:41:17;32;32;
73517;PMS5003;61766;60.318;25.044;2023-06-22T14:43:43;30;29;
73517;PMS5003;61766;60.318;25.044;2023-06-22T14:46:07;31;30;
73517;PMS5003;61766;60.318;25.044;2023-06-22T14:48:32;30;30;
73517;PMS5003;61766;60.318;25.044;2023-06-22T14:50:58;29;29;
73517;PMS5003;61766;60.318;25.044;2023-06-22T14:53:23;32;32;
73517;PMS5003;61766;60.318;25.044;2023-06-22T14:55:48;28;28;
73517;PMS5003;61766;60.318;25.044;2023-06-22T14:58:13;29;28;
73517;PMS5003;61766;60.318;25.044;2023-06-22T15:00:39;36;35;
73517;PMS5003;61766;60.318;25.044;2023-06-22T15:03:04;28;28;
73517;PMS5003;61766;60.318;25.044;2023-06-22T15:05:30;25;25;
73517;PMS5003;61766;60.318;25.044;2023-06-22T15:07:56;28;28;
73517;PMS5003;61766;60.318;25.044;2023-06-22T15:10:21;26;25;
73517;PMS5003;61766;60.318;25.044;2023-06-22T15:12:46;29;28;
73517;PMS5003;61766;60.318;25.044;2023-06-22T15:15:11;30;29;
73517;PMS5003;61766;60.318;25.044;2023-06-22T15:17:37;29;28;
73517;PMS5003;61766;60.318;25.044;2023-06-22T15:20:02;28;28;
73517;PMS5003;61766;60.318;25.044;2023-06-22T15:22:33;28;27;
73517;PMS5003;61766;60.318;25.044;2023-06-22T15:24:53;27;26;
73517;PMS5003;61766;60.318;25.044;2023-06-22T15:27:20;21;21;
73517;PMS5003;61766;60.318;25.044;2023-06-22T15:29:44;24;24;
73517;PMS5003;61766;60.318;25.044;2023-06-22T15:32:09;28;27;
73517;PMS5003;61766;60.318;25.044;2023-06-22T15:34:34;24;23;
73517;PMS5003;61766;60.318;25.044;2023-06-22T15:36:59;26;26;
73517;PMS5003;61766;60.318;25.044;2023-06-22T15:39:24;25;25;
73517;PMS5003;61766;60.318;25.044;2023-06-22T15:41:50;31;30;
73517;PMS5003;61766;60.318;25.044;2023-06-22T15:44:15;29;29;
73517;PMS5003;61766;60.318;25.044;2023-06-22T15:46:40;25;25;
73517;PMS5003;61766;60.318;25.044;2023-06-22T15:49:06;32;31;